createdAt,value
2019-04-25T00:00:40.558Z,53.55
2019-04-25T00:01:40.071Z,53.75
2019-04-25T00:02:40.800Z,53.75
2019-04-25T00:03:40.430Z,54.18
2019-04-25T00:04:39.558Z,53.75
2019-04-25T00:05:39.550Z,53.14
2019-04-25T00:06:39.540Z,54.05
2019-04-25T00:07:39.526Z,53.14
2019-04-25T00:08:39.532Z,53.55
2019-04-25T00:09:39.507Z,53.55
2019-04-25T00:10:39.492Z,53.98
2019-04-25T00:11:39.484Z,53.45
2019-04-25T00:12:39.470Z,53.47
2019-04-25T00:13:39.684Z,53.65
2019-04-25T00:14:39.698Z,53.88
2019-04-25T00:15:39.962Z,53.38
2019-04-25T00:16:39.491Z,53.07
2019-04-25T00:17:40.495Z,54.38
2019-04-25T00:18:40.134Z,54.18
2019-04-25T00:19:40.225Z,53.27
2019-04-25T00:20:39.381Z,53.98
2019-04-25T00:21:39.370Z,54.36
2019-04-25T00:22:39.359Z,53.65
2019-04-25T00:23:39.477Z,54.38
2019-04-25T00:24:39.733Z,53.96
2019-04-25T00:25:42.269Z,53.98
2019-04-25T00:26:40.949Z,53.96
2019-04-25T00:27:41.472Z,54.49
2019-04-25T00:28:39.292Z,54.79
2019-04-25T00:29:39.294Z,55.60
2019-04-25T00:30:40.311Z,55.09
2019-04-25T00:31:39.262Z,54.89
2019-04-25T00:32:39.247Z,54.99
2019-04-25T00:33:39.235Z,54.69
2019-04-25T00:34:40.845Z,55.11
2019-04-25T00:35:39.215Z,55.11
2019-04-25T00:36:39.205Z,54.91
2019-04-25T00:37:39.196Z,55.11
2019-04-25T00:38:39.185Z,55.69
2019-04-25T00:39:39.171Z,55.93
2019-04-25T00:40:39.176Z,55.22
2019-04-25T00:41:39.149Z,55.02
2019-04-25T00:42:39.139Z,55.29
2019-04-25T00:43:39.130Z,55.02
2019-04-25T00:44:39.115Z,55.11
2019-04-25T00:45:39.120Z,55.22
2019-04-25T00:46:39.100Z,55.22
2019-04-25T00:47:39.083Z,54.71
2019-04-25T00:48:39.074Z,54.71
2019-04-25T00:49:39.059Z,54.82
2019-04-25T00:50:39.074Z,54.91
2019-04-25T00:51:39.037Z,54.31
2019-04-25T00:52:39.026Z,55.02
2019-04-25T00:53:39.020Z,54.82
2019-04-25T00:54:39.004Z,54.91
2019-04-25T00:55:39.022Z,54.53
2019-04-25T00:56:38.983Z,55.04
2019-04-25T00:57:38.972Z,54.94
2019-04-25T00:58:38.962Z,56.15
2019-04-25T00:59:38.952Z,55.95
2019-04-25T01:00:38.939Z,55.85
2019-04-25T01:01:38.943Z,56.05
2019-04-25T01:02:38.918Z,55.85
2019-04-25T01:03:38.906Z,55.65
2019-04-25T01:04:38.894Z,56.05
2019-04-25T01:05:38.886Z,55.95
2019-04-25T01:06:38.891Z,56.08
2019-04-25T01:07:38.864Z,56.76
2019-04-25T01:08:38.850Z,56.86
2019-04-25T01:09:38.840Z,56.76
2019-04-25T01:10:38.827Z,57.60
2019-04-25T01:11:38.850Z,57.60
2019-04-25T01:12:38.811Z,57.29
2019-04-25T01:13:38.799Z,57.80
2019-04-25T01:14:38.783Z,57.80
2019-04-25T01:15:38.772Z,57.80
2019-04-25T01:16:38.761Z,57.50
2019-04-25T01:17:38.766Z,57.70
2019-04-25T01:18:38.741Z,57.80
2019-04-25T01:19:38.728Z,57.40
2019-04-25T01:20:38.720Z,57.40
2019-04-25T01:21:38.706Z,57.50
2019-04-25T01:22:38.723Z,57.40
2019-04-25T01:23:38.686Z,57.60
2019-04-25T01:24:38.673Z,57.50
2019-04-25T01:25:42.508Z,57.60
2019-04-25T01:26:39.651Z,57.60
2019-04-25T01:27:38.644Z,57.60
2019-04-25T01:28:38.644Z,57.50
2019-04-25T01:29:38.621Z,57.40
2019-04-25T01:30:38.607Z,57.29
2019-04-25T01:31:38.595Z,57.20
2019-04-25T01:32:38.586Z,56.99
2019-04-25T01:33:38.589Z,57.60
2019-04-25T01:34:38.561Z,57.60
2019-04-25T01:35:38.553Z,57.90
2019-04-25T01:36:38.544Z,57.53
2019-04-25T01:37:38.529Z,58.00
2019-04-25T01:38:38.553Z,58.00
2019-04-25T01:39:38.509Z,57.29
2019-04-25T01:40:38.497Z,57.73
2019-04-25T01:41:38.488Z,57.42
2019-04-25T01:42:38.476Z,57.62
2019-04-25T01:43:38.465Z,57.42
2019-04-25T01:44:38.471Z,57.73
2019-04-25T01:45:38.443Z,57.22
2019-04-25T01:46:38.441Z,57.22
2019-04-25T01:47:38.422Z,57.42
2019-04-25T01:48:38.412Z,57.86
2019-04-25T01:49:38.414Z,57.96
2019-04-25T01:50:38.389Z,57.45
2019-04-25T01:51:38.380Z,57.35
2019-04-25T01:52:38.364Z,57.35
2019-04-25T01:53:38.360Z,57.48
2019-04-25T01:54:38.373Z,57.24
2019-04-25T01:55:50.927Z,58.67
2019-04-25T01:56:39.324Z,57.96
2019-04-25T01:57:38.313Z,57.75
2019-04-25T01:58:38.301Z,58.87
2019-04-25T01:59:38.292Z,59.27
2019-04-25T02:00:38.299Z,58.59
2019-04-25T02:01:38.267Z,59.00
2019-04-25T02:02:38.256Z,59.30
2019-04-25T02:03:38.245Z,59.10
2019-04-25T02:04:38.232Z,59.50
2019-04-25T02:05:38.254Z,59.12
2019-04-25T02:06:38.213Z,60.31
2019-04-25T02:07:46.425Z,60.14
2019-04-25T02:08:38.195Z,60.65
2019-04-25T02:09:38.177Z,60.14
2019-04-25T02:10:46.955Z,60.24
2019-04-25T02:11:38.157Z,59.94
2019-04-25T02:12:38.956Z,60.14
2019-04-25T02:13:38.140Z,60.04
2019-04-25T02:14:46.513Z,59.63
2019-04-25T02:15:46.570Z,59.94
2019-04-25T02:16:38.117Z,60.04
2019-04-25T02:17:38.092Z,60.07
2019-04-25T02:18:38.084Z,59.94
2019-04-25T02:19:38.071Z,60.24
2019-04-25T02:20:38.060Z,59.94
2019-04-25T02:21:38.079Z,60.37
2019-04-25T02:22:38.100Z,59.86
2019-04-25T02:23:38.021Z,59.66
2019-04-25T02:24:38.014Z,59.86
2019-04-25T02:25:38.003Z,60.17
2019-04-25T02:26:37.987Z,58.95
2019-04-25T02:27:37.990Z,59.86
2019-04-25T02:28:37.971Z,59.97
2019-04-25T02:29:37.953Z,60.10
2019-04-25T02:30:37.945Z,59.28
2019-04-25T02:31:37.937Z,59.08
2019-04-25T02:32:37.943Z,59.86
2019-04-25T02:33:37.918Z,59.89
2019-04-25T02:34:37.897Z,59.79
2019-04-25T02:35:37.892Z,60.30
2019-04-25T02:36:37.879Z,58.98
2019-04-25T02:37:37.887Z,59.28
2019-04-25T02:38:37.857Z,59.99
2019-04-25T02:39:37.840Z,60.71
2019-04-25T02:40:37.828Z,60.40
2019-04-25T02:41:37.831Z,60.10
2019-04-25T02:42:37.837Z,59.89
2019-04-25T02:43:37.817Z,60.20
2019-04-25T02:44:37.786Z,59.28
2019-04-25T02:45:37.778Z,59.18
2019-04-25T02:46:37.768Z,59.08
2019-04-25T02:47:37.750Z,59.28
2019-04-25T02:48:37.757Z,58.98
2019-04-25T02:49:39.756Z,59.89
2019-04-25T02:50:37.718Z,60.22
2019-04-25T02:51:37.714Z,60.13
2019-04-25T02:52:37.702Z,59.11
2019-04-25T02:53:37.771Z,60.22
2019-04-25T02:54:37.675Z,59.82
2019-04-25T02:55:37.926Z,59.82
2019-04-25T02:56:38.802Z,60.02
2019-04-25T02:57:37.641Z,60.13
2019-04-25T02:58:37.632Z,59.92
2019-04-25T02:59:37.647Z,59.82
2019-04-25T03:00:51.737Z,59.62
2019-04-25T03:01:38.605Z,59.92
2019-04-25T03:02:37.587Z,60.43
2019-04-25T03:03:37.580Z,59.92
2019-04-25T03:04:37.591Z,60.53
2019-04-25T03:05:37.555Z,60.22
2019-04-25T03:06:37.539Z,60.43
2019-04-25T03:07:37.568Z,60.43
2019-04-25T03:08:37.568Z,60.36
2019-04-25T03:09:37.501Z,60.43
2019-04-25T03:10:37.506Z,60.66
2019-04-25T03:11:37.485Z,60.56
2019-04-25T03:12:37.470Z,60.86
2019-04-25T03:13:37.465Z,60.76
2019-04-25T03:14:37.461Z,60.56
2019-04-25T03:15:37.462Z,60.25
2019-04-25T03:16:37.423Z,60.25
2019-04-25T03:17:37.411Z,60.56
2019-04-25T03:18:37.419Z,60.36
2019-04-25T03:19:37.396Z,60.36
2019-04-25T03:20:37.435Z,60.76
2019-04-25T03:21:37.366Z,59.95
2019-04-25T03:22:37.356Z,60.25
2019-04-25T03:23:37.347Z,60.56
2019-04-25T03:24:37.355Z,60.28
2019-04-25T03:25:37.326Z,59.95
2019-04-25T03:26:40.390Z,60.18
2019-04-25T03:27:37.300Z,60.05
2019-04-25T03:28:37.302Z,60.28
2019-04-25T03:29:37.279Z,60.18
2019-04-25T03:30:37.300Z,60.59
2019-04-25T03:31:37.287Z,60.49
2019-04-25T03:32:37.264Z,60.86
2019-04-25T03:33:38.412Z,60.49
2019-04-25T03:34:37.232Z,60.69
2019-04-25T03:35:37.209Z,60.49
2019-04-25T03:36:37.216Z,60.18
2019-04-25T03:37:37.186Z,60.38
2019-04-25T03:38:37.174Z,60.18
2019-04-25T03:39:37.162Z,61.10
2019-04-25T03:40:37.152Z,60.89
2019-04-25T03:41:37.169Z,61.10
2019-04-25T03:42:37.134Z,60.79
2019-04-25T03:43:37.123Z,60.79
2019-04-25T03:44:37.107Z,60.59
2019-04-25T03:45:37.098Z,60.79
2019-04-25T03:46:37.088Z,60.38
2019-04-25T03:47:37.088Z,60.28
2019-04-25T03:48:37.176Z,60.79
2019-04-25T03:49:37.056Z,60.79
2019-04-25T03:50:37.038Z,60.79
2019-04-25T03:51:37.029Z,60.28
2019-04-25T03:52:37.045Z,59.91
2019-04-25T03:53:37.012Z,60.79
2019-04-25T03:54:36.993Z,60.49
2019-04-25T03:55:36.982Z,60.79
2019-04-25T03:56:36.972Z,60.38
2019-04-25T03:57:36.963Z,60.28
2019-04-25T03:58:36.967Z,60.49
2019-04-25T03:59:36.950Z,60.41
2019-04-25T04:00:36.928Z,60.28
2019-04-25T04:01:36.920Z,61.30
2019-04-25T04:02:36.903Z,61.20
2019-04-25T04:03:36.910Z,61.43
2019-04-25T04:04:36.891Z,61.20
2019-04-25T04:05:36.871Z,61.40
2019-04-25T04:06:36.861Z,61.53
2019-04-25T04:07:36.848Z,61.13
2019-04-25T04:08:36.866Z,60.89
2019-04-25T04:09:36.825Z,61.53
2019-04-25T04:10:36.820Z,61.30
2019-04-25T04:11:36.808Z,60.92
2019-04-25T04:12:36.794Z,61.02
2019-04-25T04:13:36.780Z,60.79
2019-04-25T04:14:36.787Z,62.04
2019-04-25T04:15:36.763Z,62.14
2019-04-25T04:16:36.758Z,62.45
2019-04-25T04:17:36.739Z,62.45
2019-04-25T04:18:36.723Z,62.04
2019-04-25T04:19:36.744Z,61.83
2019-04-25T04:20:36.717Z,62.35
2019-04-25T04:21:36.691Z,62.35
2019-04-25T04:22:36.723Z,62.65
2019-04-25T04:23:36.668Z,62.48
2019-04-25T04:24:36.655Z,62.65
2019-04-25T04:25:36.663Z,62.55
2019-04-25T04:26:36.635Z,62.75
2019-04-25T04:27:36.635Z,62.65
2019-04-25T04:28:36.621Z,62.65
2019-04-25T04:29:36.604Z,61.74
2019-04-25T04:30:36.611Z,62.24
2019-04-25T04:31:36.578Z,62.75
2019-04-25T04:32:36.580Z,62.35
2019-04-25T04:33:36.557Z,60.92
2019-04-25T04:34:36.545Z,60.69
2019-04-25T04:35:36.566Z,61.91
2019-04-25T04:36:36.527Z,61.02
2019-04-25T04:37:36.511Z,61.10
2019-04-25T04:38:36.555Z,61.30
2019-04-25T04:39:36.487Z,61.10
2019-04-25T04:40:36.476Z,61.40
2019-04-25T04:41:36.496Z,61.10
2019-04-25T04:42:36.468Z,61.71
2019-04-25T04:43:36.446Z,61.10
2019-04-25T04:44:36.432Z,60.99
2019-04-25T04:45:36.424Z,61.98
2019-04-25T04:46:36.434Z,60.89
2019-04-25T04:47:36.399Z,60.49
2019-04-25T04:48:36.391Z,60.69
2019-04-25T04:49:36.376Z,60.79
2019-04-25T04:50:36.373Z,60.76
2019-04-25T04:51:36.359Z,60.05
2019-04-25T04:52:36.355Z,59.95
2019-04-25T04:53:36.331Z,60.36
2019-04-25T04:54:36.320Z,60.22
2019-04-25T04:55:36.316Z,60.13
2019-04-25T04:56:36.302Z,60.13
2019-04-25T04:57:36.434Z,60.66
2019-04-25T04:58:36.275Z,60.43
2019-04-25T04:59:36.269Z,60.33
2019-04-25T05:00:36.265Z,60.63
2019-04-25T05:01:36.242Z,60.22
2019-04-25T05:02:36.235Z,59.82
2019-04-25T05:03:36.238Z,60.22
2019-04-25T05:04:36.219Z,59.62
2019-04-25T05:05:36.196Z,59.28
2019-04-25T05:06:36.192Z,59.18
2019-04-25T05:07:36.173Z,59.59
2019-04-25T05:08:36.194Z,59.16
2019-04-25T05:09:36.157Z,59.08
2019-04-25T05:10:36.140Z,59.05
2019-04-25T05:11:36.127Z,59.26
2019-04-25T05:12:36.116Z,58.65
2019-04-25T05:13:36.135Z,57.84
2019-04-25T05:14:36.099Z,57.93
2019-04-25T05:15:36.083Z,57.60
2019-04-25T05:16:36.071Z,57.60
2019-04-25T05:17:36.064Z,57.50
2019-04-25T05:18:39.529Z,57.50
2019-04-25T05:19:36.055Z,57.81
2019-04-25T05:20:36.026Z,57.58
2019-04-25T05:21:36.017Z,56.90
2019-04-25T05:22:36.009Z,57.37
2019-04-25T05:23:35.992Z,56.77
2019-04-25T05:24:35.997Z,56.36
2019-04-25T05:25:35.976Z,56.57
2019-04-25T05:26:35.963Z,56.46
2019-04-25T05:27:50.713Z,56.05
2019-04-25T05:28:36.936Z,56.36
2019-04-25T05:29:35.961Z,55.55
2019-04-25T05:30:35.916Z,55.83
2019-04-25T05:31:35.905Z,55.96
2019-04-25T05:32:35.931Z,55.12
2019-04-25T05:33:35.883Z,55.12
2019-04-25T05:34:35.875Z,54.99
2019-04-25T05:35:35.882Z,54.99
2019-04-25T05:36:35.851Z,54.59
2019-04-25T05:37:35.842Z,54.05
2019-04-25T05:38:35.830Z,53.96
2019-04-25T05:39:35.821Z,53.85
2019-04-25T05:40:35.840Z,53.55
2019-04-25T05:41:36.039Z,52.41
2019-04-25T05:42:35.785Z,52.72
2019-04-25T05:43:35.772Z,52.89
2019-04-25T05:44:35.764Z,52.19
2019-04-25T05:45:35.752Z,51.37
2019-04-25T05:46:35.766Z,51.78
2019-04-25T05:47:35.729Z,51.98
2019-04-25T05:48:35.716Z,51.37
2019-04-25T05:49:35.708Z,50.97
2019-04-25T05:50:35.696Z,51.57
2019-04-25T05:51:35.713Z,51.28
2019-04-25T05:52:35.671Z,51.25
2019-04-25T05:53:35.667Z,50.37
2019-04-25T05:54:35.650Z,50.37
2019-04-25T05:55:35.640Z,51.57
2019-04-25T05:56:35.628Z,50.57
2019-04-25T05:57:45.528Z,50.74
2019-04-25T05:58:36.602Z,50.72
2019-04-25T05:59:35.593Z,50.44
2019-04-25T06:00:35.584Z,49.41
2019-04-25T06:01:35.775Z,50.01
2019-04-25T06:02:35.577Z,49.51
2019-04-25T06:03:35.549Z,49.01
2019-04-25T06:04:35.540Z,49.41
2019-04-25T06:05:35.525Z,49.61
2019-04-25T06:06:36.856Z,49.18
2019-04-25T06:07:35.536Z,48.78
2019-04-25T06:08:35.490Z,48.65
2019-04-25T06:09:35.845Z,49.36
2019-04-25T06:10:35.468Z,48.85
2019-04-25T06:11:35.461Z,49.26
2019-04-25T06:12:35.446Z,48.96
2019-04-25T06:13:35.454Z,49.66
2019-04-25T06:14:35.423Z,48.35
2019-04-25T06:15:35.418Z,48.25
2019-04-25T06:16:35.403Z,48.65
2019-04-25T06:17:35.391Z,48.65
2019-04-25T06:18:35.415Z,48.15
2019-04-25T06:19:35.368Z,48.02
2019-04-25T06:20:35.355Z,47.22
2019-04-25T06:21:35.347Z,48.02
2019-04-25T06:22:35.334Z,48.43
2019-04-25T06:23:35.325Z,48.53
2019-04-25T06:24:35.329Z,47.80
2019-04-25T06:25:39.587Z,46.99
2019-04-25T06:26:39.774Z,47.19
2019-04-25T06:27:35.376Z,46.49
2019-04-25T06:28:35.268Z,46.29
2019-04-25T06:29:35.284Z,46.69
2019-04-25T06:30:35.377Z,47.19
2019-04-25T06:31:35.232Z,47.19
2019-04-25T06:32:35.523Z,46.99
2019-04-25T06:33:35.240Z,46.69
2019-04-25T06:34:36.446Z,45.68
2019-04-25T06:35:35.870Z,46.39
2019-04-25T06:36:35.417Z,47.02
2019-04-25T06:37:35.238Z,46.92
2019-04-25T06:38:35.152Z,47.12
2019-04-25T06:39:35.141Z,48.22
2019-04-25T06:40:35.162Z,48.43
2019-04-25T06:41:35.401Z,48.22
2019-04-25T06:42:35.108Z,48.43
2019-04-25T06:43:35.095Z,48.43
2019-04-25T06:44:35.083Z,49.52
2019-04-25T06:45:35.078Z,49.52
2019-04-25T06:46:35.081Z,48.81
2019-04-25T06:47:35.058Z,48.79
2019-04-25T06:48:35.234Z,48.00
2019-04-25T06:49:37.323Z,47.09
2019-04-25T06:50:35.384Z,46.97
2019-04-25T06:51:35.021Z,47.47
2019-04-25T06:52:35.461Z,47.47
2019-04-25T06:53:34.982Z,47.17
2019-04-25T06:54:35.246Z,46.97
2019-04-25T06:55:34.961Z,47.38
2019-04-25T06:56:34.965Z,47.17
2019-04-25T06:57:34.937Z,47.27
2019-04-25T06:58:34.934Z,46.34
2019-04-25T06:59:38.533Z,46.95
2019-04-25T07:00:41.274Z,46.85
2019-04-25T07:01:35.922Z,45.14
2019-04-25T07:02:35.201Z,44.71
2019-04-25T07:03:35.747Z,45.32
2019-04-25T07:04:34.911Z,46.00
2019-04-25T07:05:40.277Z,44.89
2019-04-25T07:06:35.835Z,44.59
2019-04-25T07:07:35.194Z,44.89
2019-04-25T07:08:35.380Z,44.49
2019-04-25T07:09:35.987Z,44.89
2019-04-25T07:10:35.007Z,45.29
2019-04-25T07:11:35.777Z,44.17
2019-04-25T07:12:35.985Z,44.89
2019-04-25T07:13:38.599Z,44.77
2019-04-25T07:14:36.873Z,45.25
2019-04-25T07:15:35.307Z,44.55
2019-04-25T07:16:34.742Z,44.23
2019-04-25T07:17:35.866Z,44.53
2019-04-25T07:18:37.086Z,42.90
2019-04-25T07:19:35.579Z,43.50
2019-04-25T07:20:35.530Z,43.08
2019-04-25T07:21:35.601Z,43.08
2019-04-25T07:22:35.308Z,42.35
2019-04-25T07:23:34.731Z,42.05
2019-04-25T07:24:35.347Z,41.43
2019-04-25T07:25:35.777Z,42.02
2019-04-25T07:26:39.530Z,41.71
2019-04-25T07:27:35.679Z,41.21
2019-04-25T07:28:36.002Z,40.91
2019-04-25T07:29:34.863Z,40.89
2019-04-25T07:30:48.561Z,41.79
2019-04-25T07:31:35.752Z,40.37
2019-04-25T07:32:35.676Z,40.77
2019-04-25T07:33:35.657Z,40.37
2019-04-25T07:34:35.093Z,39.75
2019-04-25T07:35:35.007Z,40.25
2019-04-25T07:36:35.127Z,39.65
2019-04-25T07:37:37.200Z,39.73
2019-04-25T07:38:35.010Z,39.13
2019-04-25T07:39:35.561Z,38.63
2019-04-25T07:40:35.013Z,38.83
2019-04-25T07:41:36.802Z,38.55
2019-04-25T07:42:35.438Z,37.95
2019-04-25T07:43:35.386Z,38.75
2019-04-25T07:44:47.846Z,39.03
2019-04-25T07:45:36.272Z,39.63
2019-04-25T07:46:38.178Z,39.11
2019-04-25T07:47:36.353Z,38.21
2019-04-25T07:48:37.094Z,38.31
2019-04-25T07:49:34.819Z,38.51
2019-04-25T07:50:35.418Z,38.11
2019-04-25T07:51:35.352Z,37.51
2019-04-25T07:52:34.843Z,37.70
2019-04-25T07:53:35.140Z,37.70
2019-04-25T07:54:35.390Z,37.58
2019-04-25T07:55:36.365Z,37.98
2019-04-25T07:56:35.212Z,37.36
2019-04-25T07:57:34.943Z,37.06
2019-04-25T07:58:45.451Z,37.46
2019-04-25T07:59:36.317Z,37.46
2019-04-25T08:00:36.113Z,37.76
2019-04-25T08:01:36.659Z,37.08
2019-04-25T08:02:35.065Z,37.86
2019-04-25T08:03:35.261Z,37.66
2019-04-25T08:04:35.715Z,37.94
2019-04-25T08:05:35.427Z,37.84
2019-04-25T08:06:34.555Z,36.74
2019-04-25T08:07:35.292Z,37.52
2019-04-25T08:08:34.986Z,35.53
2019-04-25T08:09:35.429Z,36.44
2019-04-25T08:10:34.689Z,37.34
2019-04-25T08:11:35.077Z,37.04
2019-04-25T08:12:34.654Z,36.44
2019-04-25T08:13:35.075Z,36.16
2019-04-25T08:14:35.074Z,36.56
2019-04-25T08:15:34.989Z,36.56
2019-04-25T08:16:34.765Z,35.72
2019-04-25T08:17:35.860Z,34.93
2019-04-25T08:18:35.096Z,34.14
2019-04-25T08:19:34.672Z,32.85
2019-04-25T08:20:34.761Z,33.03
2019-04-25T08:21:34.500Z,32.55
2019-04-25T08:22:38.513Z,32.95
2019-04-25T08:23:37.723Z,33.93
2019-04-25T08:24:34.909Z,33.33
2019-04-25T08:25:38.886Z,34.21
2019-04-25T08:26:36.205Z,32.92
2019-04-25T08:27:34.749Z,33.12
2019-04-25T08:28:36.701Z,33.60
2019-04-25T08:29:39.120Z,33.90
2019-04-25T08:30:35.334Z,32.48
2019-04-25T08:31:34.991Z,31.40
2019-04-25T08:32:35.514Z,31.49
2019-04-25T08:33:34.553Z,29.99
2019-04-25T08:34:35.720Z,30.40
2019-04-25T08:35:34.274Z,30.49
2019-04-25T08:36:38.166Z,28.40
2019-04-25T08:37:35.200Z,29.20
2019-04-25T08:38:35.178Z,28.80
2019-04-25T08:39:36.931Z,29.50
2019-04-25T08:40:35.793Z,28.90
2019-04-25T08:41:34.798Z,29.90
2019-04-25T08:42:35.427Z,29.80
2019-04-25T08:43:34.797Z,30.49
2019-04-25T08:44:34.791Z,30.08
2019-04-25T08:45:35.693Z,28.99
2019-04-25T08:46:35.839Z,27.70
2019-04-25T08:47:35.105Z,27.80
2019-04-25T08:48:34.921Z,28.10
2019-04-25T08:49:34.926Z,28.41
2019-04-25T08:50:37.186Z,29.69
2019-04-25T08:51:35.205Z,29.69
2019-04-25T08:52:35.491Z,29.99
2019-04-25T08:53:35.168Z,29.78
2019-04-25T08:54:35.405Z,30.77
2019-04-25T08:55:34.959Z,30.38
2019-04-25T08:56:35.125Z,30.48
2019-04-25T08:57:34.769Z,29.86
2019-04-25T08:58:35.313Z,29.35
2019-04-25T08:59:40.052Z,29.16
2019-04-25T09:00:35.747Z,29.16
2019-04-25T09:01:34.885Z,29.34
2019-04-25T09:02:36.068Z,28.55
2019-04-25T09:03:35.273Z,28.94
2019-04-25T09:04:35.665Z,29.13
2019-04-25T09:05:36.086Z,28.73
2019-04-25T09:06:36.055Z,28.53
2019-04-25T09:07:35.377Z,27.52
2019-04-25T09:08:35.988Z,27.33
2019-04-25T09:09:35.401Z,25.93
2019-04-25T09:10:36.838Z,25.16
2019-04-25T09:11:36.599Z,26.08
2019-04-25T09:12:35.561Z,26.98
2019-04-25T09:13:35.819Z,27.18
2019-04-25T09:14:35.486Z,27.17
2019-04-25T09:15:35.638Z,26.97
2019-04-25T09:16:34.733Z,25.77
2019-04-25T09:17:35.839Z,25.86
2019-04-25T09:18:34.964Z,25.36
2019-04-25T09:19:35.887Z,26.06
2019-04-25T09:20:38.011Z,25.26
2019-04-25T09:21:36.442Z,25.65
2019-04-25T09:22:35.275Z,24.95
2019-04-25T09:23:36.218Z,25.15
2019-04-25T09:24:36.278Z,25.93
2019-04-25T09:25:34.575Z,25.73
2019-04-25T09:26:34.905Z,24.64
2019-04-25T09:27:34.517Z,24.05
2019-04-25T09:28:34.860Z,25.35
2019-04-25T09:29:34.609Z,24.16
2019-04-25T09:30:34.931Z,25.35
2019-04-25T09:31:34.613Z,25.05
2019-04-25T09:32:33.784Z,25.05
2019-04-25T09:33:35.152Z,24.94
2019-04-25T09:34:33.590Z,23.74
2019-04-25T09:35:33.571Z,23.13
2019-04-25T09:36:33.652Z,22.42
2019-04-25T09:37:34.430Z,23.00
2019-04-25T09:38:34.801Z,22.88
2019-04-25T09:39:33.772Z,22.26
2019-04-25T09:40:34.184Z,22.53
2019-04-25T09:41:33.598Z,21.32
2019-04-25T09:42:33.848Z,21.30
2019-04-25T09:43:33.545Z,19.70
2019-04-25T09:44:33.087Z,20.37
2019-04-25T09:45:33.521Z,18.68
2019-04-25T09:46:34.164Z,18.27
2019-04-25T09:47:33.556Z,17.66
2019-04-25T09:48:35.389Z,17.05
2019-04-25T09:49:33.877Z,17.33
2019-04-25T09:50:33.991Z,16.24
2019-04-25T09:51:33.612Z,14.96
2019-04-25T09:52:34.053Z,15.35
2019-04-25T09:53:34.835Z,15.25
2019-04-25T09:54:33.477Z,15.82
2019-04-25T09:55:34.032Z,15.52
2019-04-25T09:56:33.873Z,14.83
2019-04-25T09:57:33.626Z,15.61
2019-04-25T09:58:33.826Z,15.50
2019-04-25T09:59:33.149Z,15.39
2019-04-25T10:00:33.446Z,14.79
2019-04-25T10:01:33.875Z,14.20
2019-04-25T10:02:32.893Z,13.82
2019-04-25T10:03:33.350Z,13.53
2019-04-25T10:04:34.558Z,13.33
2019-04-25T10:05:33.941Z,13.72
2019-04-25T10:06:33.332Z,14.01
2019-04-25T10:07:32.839Z,13.72
2019-04-25T10:08:34.292Z,14.79
2019-04-25T10:09:33.740Z,14.01
2019-04-25T10:10:32.811Z,14.50
2019-04-25T10:11:33.520Z,14.69
2019-04-25T10:12:34.190Z,14.21
2019-04-25T10:13:33.747Z,14.39
2019-04-25T10:14:32.798Z,14.48
2019-04-25T10:15:33.918Z,13.31
2019-04-25T10:16:33.485Z,13.79
2019-04-25T10:17:33.796Z,13.71
2019-04-25T10:18:33.437Z,14.39
2019-04-25T10:19:34.324Z,13.42
2019-04-25T10:20:33.377Z,14.18
2019-04-25T10:21:34.223Z,13.50
2019-04-25T10:22:33.922Z,13.59
2019-04-25T10:23:34.233Z,13.68
2019-04-25T10:24:32.663Z,13.20
2019-04-25T10:25:33.435Z,13.01
2019-04-25T10:26:34.779Z,13.32
2019-04-25T10:27:32.634Z,14.01
2019-04-25T10:28:33.604Z,13.32
2019-04-25T10:29:41.254Z,14.09
2019-04-25T10:30:34.302Z,13.31
2019-04-25T10:31:33.891Z,13.31
2019-04-25T10:32:33.568Z,13.79
2019-04-25T10:33:32.572Z,12.52
2019-04-25T10:34:33.365Z,12.14
2019-04-25T10:35:40.878Z,12.72
2019-04-25T10:36:33.745Z,12.92
2019-04-25T10:37:33.936Z,12.61
2019-04-25T10:38:34.816Z,13.20
2019-04-25T10:39:33.934Z,12.73
2019-04-25T10:40:33.802Z,13.32
2019-04-25T10:41:33.665Z,12.15
2019-04-25T10:42:34.213Z,12.73
2019-04-25T10:43:34.088Z,12.63
2019-04-25T10:44:33.843Z,12.45
2019-04-25T10:45:34.010Z,12.14
2019-04-25T10:46:33.964Z,12.62
2019-04-25T10:47:33.461Z,12.73
2019-04-25T10:48:34.286Z,13.01
2019-04-25T10:49:34.358Z,11.74
2019-04-25T10:50:33.990Z,11.93
2019-04-25T10:51:34.148Z,12.60
2019-04-25T10:52:33.736Z,11.82
2019-04-25T10:53:33.814Z,11.93
2019-04-25T10:54:34.966Z,11.74
2019-04-25T10:55:32.360Z,10.96
2019-04-25T10:56:33.465Z,11.76
2019-04-25T10:57:33.934Z,11.47
2019-04-25T10:58:33.511Z,12.15
2019-04-25T10:59:32.312Z,12.04
2019-04-25T11:00:33.806Z,11.35
2019-04-25T11:01:33.888Z,11.74
2019-04-25T11:02:33.916Z,11.73
2019-04-25T11:03:33.688Z,11.54
2019-04-25T11:04:32.270Z,11.13
2019-04-25T11:05:32.256Z,10.84
2019-04-25T11:06:33.657Z,11.43
2019-04-25T11:07:33.828Z,10.75
2019-04-25T11:08:33.879Z,11.22
2019-04-25T11:09:32.222Z,10.44
2019-04-25T11:10:32.210Z,10.54
2019-04-25T11:11:32.201Z,10.25
2019-04-25T11:12:33.780Z,10.83
2019-04-25T11:13:33.938Z,10.25
2019-04-25T11:14:33.999Z,10.15
2019-04-25T11:15:33.885Z,9.95
2019-04-25T11:16:33.300Z,10.54
2019-04-25T11:17:33.714Z,10.35
2019-04-25T11:18:33.910Z,10.83
2019-04-25T11:19:33.872Z,9.67
2019-04-25T11:20:33.715Z,10.53
2019-04-25T11:21:33.318Z,10.15
2019-04-25T11:22:32.094Z,10.05
2019-04-25T11:23:32.090Z,9.57
2019-04-25T11:24:32.107Z,10.15
2019-04-25T11:25:32.070Z,10.16
2019-04-25T11:26:34.477Z,10.35
2019-04-25T11:27:32.050Z,10.16
2019-04-25T11:28:33.613Z,9.77
2019-04-25T11:29:32.029Z,9.88
2019-04-25T11:30:32.040Z,10.56
2019-04-25T11:31:33.551Z,11.13
2019-04-25T11:32:33.793Z,9.67
2019-04-25T11:33:33.403Z,10.16
2019-04-25T11:34:31.988Z,10.15
2019-04-25T11:35:32.010Z,10.05
2019-04-25T11:36:31.962Z,10.24
2019-04-25T11:37:31.952Z,9.47
2019-04-25T11:38:31.942Z,9.95
2019-04-25T11:39:31.940Z,9.17
2019-04-25T11:40:31.922Z,9.56
2019-04-25T11:41:31.931Z,8.69
2019-04-25T11:42:31.906Z,9.17
2019-04-25T11:43:31.894Z,9.17
2019-04-25T11:44:33.288Z,9.56
2019-04-25T11:45:31.876Z,9.46
2019-04-25T11:46:33.310Z,9.75
2019-04-25T11:47:33.405Z,10.22
2019-04-25T11:48:31.846Z,8.68
2019-04-25T11:49:31.833Z,9.16
2019-04-25T11:50:31.823Z,10.33
2019-04-25T11:51:31.814Z,10.05
2019-04-25T11:52:33.510Z,10.36
2019-04-25T11:53:31.794Z,10.35
2019-04-25T11:54:31.795Z,10.93
2019-04-25T11:55:31.777Z,11.02
2019-04-25T11:56:31.765Z,10.91
2019-04-25T11:57:31.785Z,9.46
2019-04-25T11:58:31.746Z,10.44
2019-04-25T11:59:31.737Z,10.63
2019-04-25T12:00:31.727Z,10.25
2019-04-25T12:01:33.514Z,10.94
2019-04-25T12:02:31.710Z,11.15
2019-04-25T12:03:33.496Z,11.93
2019-04-25T12:04:33.207Z,12.12
2019-04-25T12:05:31.687Z,11.82
2019-04-25T12:06:31.669Z,12.12
2019-04-25T12:07:31.659Z,11.83
2019-04-25T12:08:31.677Z,12.43
2019-04-25T12:09:31.640Z,13.31
2019-04-25T12:10:31.629Z,13.81
2019-04-25T12:11:31.618Z,13.64
2019-04-25T12:12:31.617Z,13.85
2019-04-25T12:13:31.601Z,15.04
2019-04-25T12:14:31.605Z,15.06
2019-04-25T12:15:33.282Z,16.35
2019-04-25T12:16:31.569Z,15.99
2019-04-25T12:17:31.558Z,17.57
2019-04-25T12:18:33.374Z,18.16
2019-04-25T12:19:35.839Z,17.77
2019-04-25T12:20:33.964Z,17.89
2019-04-25T12:21:31.519Z,17.99
2019-04-25T12:22:31.506Z,17.90
2019-04-25T12:23:31.498Z,17.21
2019-04-25T12:24:33.309Z,17.80
2019-04-25T12:25:31.473Z,17.52
2019-04-25T12:26:33.592Z,18.12
2019-04-25T12:27:31.452Z,18.31
2019-04-25T12:28:31.445Z,18.13
2019-04-25T12:29:31.431Z,17.54
2019-04-25T12:30:38.248Z,17.55
2019-04-25T12:31:34.049Z,17.94
2019-04-25T12:32:31.396Z,18.25
2019-04-25T12:33:31.391Z,17.97
2019-04-25T12:34:31.376Z,17.87
2019-04-25T12:35:31.401Z,19.06
2019-04-25T12:36:31.354Z,19.24
2019-04-25T12:37:31.345Z,19.07
2019-04-25T12:38:31.333Z,19.17
2019-04-25T12:39:31.324Z,19.87
2019-04-25T12:40:31.312Z,19.98
2019-04-25T12:41:31.318Z,20.57
2019-04-25T12:42:31.297Z,20.68
2019-04-25T12:43:31.279Z,21.10
2019-04-25T12:44:31.268Z,21.21
2019-04-25T12:45:31.262Z,21.70
2019-04-25T12:46:31.265Z,20.70
2019-04-25T12:47:31.243Z,21.10
2019-04-25T12:48:31.230Z,21.50
2019-04-25T12:49:31.217Z,21.50
2019-04-25T12:50:31.205Z,20.90
2019-04-25T12:51:31.223Z,21.30
2019-04-25T12:52:31.185Z,21.61
2019-04-25T12:53:31.174Z,21.62